createdAt,value
2022-09-02T00:06:30.489Z,12.72
2022-09-02T00:26:30.964Z,12.86
2022-09-02T00:46:30.958Z,12.72
2022-09-02T01:06:30.939Z,12.71
2022-09-02T01:26:30.907Z,12.71
2022-09-02T01:46:30.941Z,12.71
2022-09-02T02:06:30.339Z,12.72
2022-09-02T02:26:30.843Z,12.71
2022-09-02T02:46:30.826Z,12.71
2022-09-02T03:06:30.799Z,12.71
2022-09-02T03:26:30.785Z,12.71
2022-09-02T03:46:30.762Z,12.71
2022-09-02T04:06:32.801Z,12.71
2022-09-02T04:26:30.723Z,12.72
2022-09-02T04:46:33.880Z,12.69
2022-09-02T05:26:30.655Z,12.73
2022-09-02T05:46:30.187Z,12.71
2022-09-02T06:06:30.607Z,12.71
2022-09-02T06:26:30.579Z,12.71
2022-09-02T07:26:30.495Z,12.71
2022-09-02T08:26:30.409Z,12.7
2022-09-02T08:46:30.371Z,12.71
2022-09-02T09:06:30.357Z,12.7
2022-09-02T09:26:30.314Z,12.7
2022-09-02T10:06:30.244Z,12.7
2022-09-02T10:46:30.234Z,12.7
2022-09-02T11:06:40.198Z,12.68
2022-09-02T11:46:29.997Z,12.7
2022-09-02T12:06:30.079Z,12.68
2022-09-02T12:26:29.915Z,12.68
2022-09-02T12:46:30.050Z,12.68
2022-09-02T13:06:29.995Z,12.68
2022-09-02T13:26:48.177Z,12.7
2022-09-02T13:46:29.977Z,12.69
2022-09-02T14:06:29.922Z,12.67
2022-09-02T14:26:29.880Z,12.68
2022-09-02T14:46:29.926Z,12.68
2022-09-02T15:06:29.044Z,12.67
2022-09-02T15:26:29.266Z,12.67
2022-09-02T15:46:29.840Z,12.67
2022-09-02T16:06:29.229Z,12.67
2022-09-02T16:26:29.172Z,12.68
2022-09-02T16:46:29.728Z,12.67
2022-09-02T17:06:29.644Z,12.67
2022-09-02T18:06:29.024Z,12.66
2022-09-02T18:46:29.352Z,12.66
2022-09-02T19:06:29.461Z,12.66
2022-09-02T19:26:29.447Z,12.65
2022-09-02T19:46:56.037Z,12.66
2022-09-02T20:06:36.391Z,12.66
2022-09-02T20:46:28.830Z,12.66
2022-09-02T21:06:29.294Z,12.65
2022-09-02T21:26:29.271Z,12.65
2022-09-02T21:46:29.286Z,12.64
2022-09-02T22:06:28.694Z,12.64
2022-09-02T22:26:29.190Z,12.64
2022-09-02T22:46:28.152Z,12.64
2022-09-02T23:06:29.144Z,12.64
2022-09-02T23:26:29.120Z,12.64
2022-09-02T23:46:28.631Z,12.64
